Weather at Canberra International Airport

Public forecast

Using degrees Celsius for public forecast. Weather courtesy of forecast.io.

Current aviation weather report (METAR) for Canberra International Airport

2022/12/03 12:30 (retrieved 31 minutes ago)

YSCB 031230Z AUTO 11005KT 9999 // SCT055 BKN065 15/13 Q1018

Aviation forecast (TAF) for Canberra International Airport

2022/12/03 12:09 Ammendment (retrieved 52 minutes ago)

AMD YSCB 031106Z 0312/0412 10005KT 9999 SCT050 FM031600 VRB03KT CAVOK FM032300 35008KT CAVOK FM040900 06006KT 9999 -SHRA SCT040 PROB30 0317/0321 2000 BR NSC